createdAt,value
2022-10-21T00:00:41.298Z,22.67
2022-10-21T00:03:13.048Z,19.83
2022-10-21T00:05:49.146Z,17.77
2022-10-21T00:08:23.839Z,23.83
2022-10-21T00:10:54.624Z,22.42
2022-10-21T00:13:31.662Z,21.20
2022-10-21T00:16:18.757Z,24.73
2022-10-21T00:18:47.813Z,27.23
2022-10-21T00:21:19.789Z,32.75
2022-10-21T00:26:29.461Z,32.60
2022-10-21T00:29:19.002Z,30.85
2022-10-21T00:32:00.103Z,36.60
2022-10-21T00:34:32.872Z,34.92
2022-10-21T00:37:00.835Z,30.30
2022-10-21T00:39:31.837Z,34.17
2022-10-21T00:42:20.186Z,33.13
2022-10-21T00:45:18.121Z,35.30
2022-10-21T00:48:06.169Z,29.55
2022-10-21T00:50:55.029Z,32.00
2022-10-21T00:53:26.472Z,30.83
2022-10-21T00:58:31.443Z,29.98
2022-10-21T01:01:07.718Z,30.88
2022-10-21T01:03:48.009Z,33.00
2022-10-21T01:06:17.298Z,28.70
2022-10-21T01:08:49.302Z,27.90
2022-10-21T01:11:28.705Z,27.52
2022-10-21T01:14:18.689Z,26.13
2022-10-21T01:16:51.661Z,34.83
2022-10-21T01:19:28.591Z,28.30
2022-10-21T01:22:16.464Z,31.45
2022-10-21T01:28:13.248Z,29.63
2022-10-21T01:30:47.538Z,26.40
2022-10-21T01:33:15.238Z,24.80
2022-10-21T01:35:54.201Z,26.05
2022-10-21T01:38:42.883Z,27.90
2022-10-21T01:41:31.147Z,28.77
2022-10-21T01:44:10.210Z,24.48
2022-10-21T01:46:47.019Z,24.20
2022-10-21T01:49:33.537Z,23.75
2022-10-21T01:52:02.490Z,25.45
2022-10-21T01:55:02.261Z,29.98
2022-10-21T01:57:35.716Z,28.08
2022-10-21T02:00:18.133Z,28.35
2022-10-21T02:02:57.071Z,24.10
2022-10-21T02:05:45.275Z,22.75
2022-10-21T02:08:18.081Z,24.88
2022-10-21T02:10:51.175Z,23.25
2022-10-21T02:13:27.883Z,21.63
2022-10-21T02:16:05.098Z,22.20
2022-10-21T02:19:18.497Z,20.40
2022-10-21T02:22:05.129Z,22.75
2022-10-21T02:25:08.489Z,20.70
2022-10-21T02:27:46.861Z,19.13
2022-10-21T02:30:48.775Z,18.45
2022-10-21T02:33:44.158Z,17.42
2022-10-21T02:36:27.382Z,19.65
2022-10-21T02:39:08.060Z,16.25
2022-10-21T02:41:45.290Z,18.50
2022-10-21T02:44:13.475Z,17.33
2022-10-21T02:46:57.598Z,18.65
2022-10-21T02:49:32.766Z,19.85
2022-10-21T02:52:12.080Z,15.90
2022-10-21T02:54:49.074Z,17.88
2022-10-21T02:57:28.311Z,17.23
2022-10-21T02:59:59.448Z,16.90
2022-10-21T03:02:32.313Z,19.85
2022-10-21T03:05:02.203Z,17.83
2022-10-21T03:07:42.655Z,19.05
2022-10-21T03:10:16.625Z,18.70
2022-10-21T03:12:50.669Z,19.50
2022-10-21T03:15:33.870Z,23.08
2022-10-21T03:18:20.198Z,18.60
2022-10-21T03:20:57.175Z,23.20
2022-10-21T03:23:34.600Z,19.27
2022-10-21T03:26:02.375Z,21.73
2022-10-21T03:28:42.788Z,21.33
2022-10-21T03:31:35.556Z,25.20
2022-10-21T03:34:04.601Z,17.40
2022-10-21T03:36:32.537Z,21.50
2022-10-21T03:39:32.583Z,22.00
2022-10-21T03:42:09.614Z,20.25
2022-10-21T03:44:54.784Z,24.85
2022-10-21T03:47:41.708Z,20.83
2022-10-21T03:50:16.417Z,24.35
2022-10-21T03:52:54.055Z,23.42
2022-10-21T03:58:07.417Z,26.42
2022-10-21T04:00:46.808Z,26.75
2022-10-21T04:03:23.787Z,38.58
2022-10-21T04:05:52.534Z,23.05
2022-10-21T04:08:21.446Z,23.17
2022-10-21T04:10:53.206Z,21.17
2022-10-21T04:13:29.728Z,20.83
2022-10-21T04:16:03.449Z,22.35
2022-10-21T04:18:35.019Z,24.33
2022-10-21T04:21:17.440Z,24.77
2022-10-21T04:23:50.440Z,20.13
2022-10-21T04:26:38.454Z,21.85
2022-10-21T04:29:19.609Z,23.60
2022-10-21T04:31:53.735Z,23.52
2022-10-21T04:34:21.527Z,19.48
2022-10-21T04:36:49.252Z,23.38
2022-10-21T04:39:17.178Z,25.08
2022-10-21T04:41:47.057Z,22.23
2022-10-21T04:44:15.907Z,24.83
2022-10-21T04:46:48.154Z,23.98
2022-10-21T04:49:30.335Z,21.38
2022-10-21T04:52:28.954Z,22.95
2022-10-21T04:55:20.620Z,25.65
2022-10-21T05:00:44.930Z,29.77
2022-10-21T05:03:39.989Z,24.38
2022-10-21T05:06:28.433Z,27.00
2022-10-21T05:09:17.077Z,30.48
2022-10-21T05:11:45.147Z,23.98
2022-10-21T05:14:41.809Z,27.15
2022-10-21T05:17:10.061Z,27.80
2022-10-21T05:19:39.065Z,22.50
2022-10-21T05:22:48.546Z,28.15
2022-10-21T05:25:17.331Z,27.33
2022-10-21T05:27:47.568Z,25.00
2022-10-21T05:30:34.782Z,25.45
2022-10-21T05:33:12.128Z,25.45
2022-10-21T05:35:41.327Z,24.67
2022-10-21T05:38:11.376Z,25.92
2022-10-21T05:40:42.422Z,26.75
2022-10-21T05:43:10.283Z,21.58
2022-10-21T05:45:41.205Z,26.60
2022-10-21T05:48:08.882Z,23.80
2022-10-21T05:50:36.745Z,24.13
2022-10-21T05:53:09.071Z,27.13
2022-10-21T05:55:42.976Z,22.65
2022-10-21T05:58:13.787Z,25.88
2022-10-21T06:00:50.975Z,21.65
2022-10-21T06:03:26.947Z,23.65
2022-10-21T06:06:09.773Z,24.95
2022-10-21T06:08:47.014Z,24.05
2022-10-21T06:11:21.136Z,24.90
2022-10-21T06:14:00.027Z,28.35
2022-10-21T06:16:27.935Z,25.98
2022-10-21T06:18:57.615Z,25.83
2022-10-21T06:21:31.473Z,30.95
2022-10-21T06:24:16.537Z,22.33
2022-10-21T06:26:50.569Z,27.17
2022-10-21T06:29:29.707Z,24.17
2022-10-21T06:31:57.555Z,31.98
2022-10-21T06:34:27.431Z,25.48
2022-10-21T06:36:55.175Z,24.77
2022-10-21T06:39:24.221Z,23.67
2022-10-21T06:42:01.483Z,28.08
2022-10-21T06:44:32.493Z,25.17
2022-10-21T06:47:13.535Z,27.52
2022-10-21T06:49:41.441Z,28.83
2022-10-21T06:52:27.441Z,30.13
2022-10-21T06:55:15.811Z,23.35
2022-10-21T06:58:00.544Z,26.65
2022-10-21T07:00:55.488Z,24.52
2022-10-21T07:03:46.403Z,29.00
2022-10-21T07:06:17.519Z,23.42
2022-10-21T07:09:04.572Z,27.35
2022-10-21T07:11:39.896Z,28.23
2022-10-21T07:14:09.916Z,23.58
2022-10-21T07:16:44.181Z,20.67
2022-10-21T07:19:21.160Z,22.75
2022-10-21T07:21:57.839Z,26.33
2022-10-21T07:24:27.287Z,22.58
2022-10-21T07:27:04.805Z,25.17
2022-10-21T07:29:40.272Z,24.20
2022-10-21T07:32:17.473Z,24.50
2022-10-21T07:35:02.796Z,25.13
2022-10-21T07:40:53.732Z,23.70
2022-10-21T07:43:36.463Z,25.38
2022-10-21T07:46:17.177Z,26.70
2022-10-21T07:49:08.197Z,22.33
2022-10-21T07:51:43.726Z,27.90
2022-10-21T07:54:20.401Z,23.83
2022-10-21T07:56:55.720Z,26.15
2022-10-21T07:59:25.039Z,25.52
2022-10-21T08:01:54.580Z,25.17
2022-10-21T08:04:33.585Z,23.25
2022-10-21T08:07:13.094Z,25.48
2022-10-21T08:09:50.117Z,25.55
2022-10-21T08:12:20.407Z,25.13
2022-10-21T08:14:48.545Z,24.27
2022-10-21T08:17:16.878Z,24.08
2022-10-21T08:19:45.077Z,21.83
2022-10-21T08:22:19.396Z,27.38
2022-10-21T08:24:47.786Z,25.15
2022-10-21T08:27:17.767Z,24.52
2022-10-21T08:29:46.836Z,30.13
2022-10-21T08:32:21.177Z,21.83
2022-10-21T08:34:52.474Z,29.90
2022-10-21T08:37:24.805Z,21.60
2022-10-21T08:39:58.904Z,22.45
2022-10-21T08:42:28.539Z,20.58
2022-10-21T08:45:35.220Z,25.55
2022-10-21T08:48:07.175Z,18.90
2022-10-21T08:51:07.747Z,21.02
2022-10-21T08:53:54.707Z,24.88
2022-10-21T08:56:35.269Z,28.60
2022-10-21T08:59:17.824Z,21.15
2022-10-21T09:02:05.871Z,22.25
2022-10-21T09:05:17.197Z,19.38
2022-10-21T09:07:48.001Z,21.45
2022-10-21T09:13:36.902Z,21.35
2022-10-21T09:19:33.683Z,23.00
2022-10-21T09:22:22.486Z,21.60
2022-10-21T09:25:02.659Z,18.70
2022-10-21T09:27:54.806Z,20.58
2022-10-21T09:30:26.840Z,19.75
2022-10-21T09:32:59.369Z,33.75
2022-10-21T09:35:39.141Z,17.20
2022-10-21T09:38:27.427Z,18.27
2022-10-21T09:41:04.400Z,21.23
2022-10-21T09:43:51.481Z,20.42
2022-10-21T09:46:29.165Z,21.80
2022-10-21T09:52:16.841Z,19.38
2022-10-21T09:54:45.680Z,20.33
2022-10-21T09:57:18.553Z,19.35
2022-10-21T10:00:05.240Z,21.20
2022-10-21T10:03:00.239Z,18.80
2022-10-21T10:05:45.883Z,21.25
2022-10-21T10:08:30.584Z,18.95
2022-10-21T10:11:27.777Z,19.58
2022-10-21T10:14:26.749Z,21.65
2022-10-21T10:17:13.431Z,21.60
2022-10-21T10:19:41.585Z,24.70
2022-10-21T10:22:30.093Z,21.60
2022-10-21T10:25:19.509Z,21.52
2022-10-21T10:27:58.131Z,18.75
2022-10-21T10:30:46.441Z,21.98
2022-10-21T10:33:44.586Z,20.38
2022-10-21T10:36:26.287Z,19.83
2022-10-21T10:38:57.443Z,23.65
2022-10-21T10:41:30.883Z,18.05
2022-10-21T10:44:09.731Z,24.23
2022-10-21T10:46:44.424Z,20.40
2022-10-21T10:49:28.158Z,20.73
2022-10-21T10:52:12.719Z,21.13
2022-10-21T10:54:46.125Z,18.88
2022-10-21T10:57:44.448Z,21.00
2022-10-21T11:00:21.213Z,22.95
2022-10-21T11:02:50.549Z,26.60
2022-10-21T11:05:40.274Z,21.30
2022-10-21T11:08:34.543Z,22.40
2022-10-21T11:11:15.954Z,19.55
2022-10-21T11:13:44.075Z,21.73
2022-10-21T11:16:26.144Z,23.35
2022-10-21T11:19:21.093Z,19.38
2022-10-21T11:21:57.166Z,20.05
2022-10-21T11:24:47.047Z,22.27
2022-10-21T11:27:50.118Z,23.58
2022-10-21T11:30:38.506Z,21.75
2022-10-21T11:33:23.441Z,22.67
2022-10-21T11:36:32.425Z,24.90
2022-10-21T11:39:39.051Z,21.13
2022-10-21T11:42:27.567Z,20.60
2022-10-21T11:45:18.047Z,18.50
2022-10-21T11:47:54.219Z,21.40
2022-10-21T11:50:44.108Z,24.17
2022-10-21T11:53:39.090Z,24.23
2022-10-21T11:56:25.967Z,26.35
2022-10-21T11:59:19.915Z,24.33
2022-10-21T12:11:13.660Z,23.92
2022-10-21T12:13:59.585Z,22.15
2022-10-21T12:16:43.808Z,24.42
2022-10-21T12:19:14.567Z,18.60
2022-10-21T12:21:50.537Z,19.88
2022-10-21T12:24:56.315Z,18.63
2022-10-21T12:27:28.979Z,19.08
2022-10-21T12:30:01.268Z,20.33
2022-10-21T12:32:29.096Z,25.33
2022-10-21T12:34:58.275Z,22.15
2022-10-21T12:37:45.927Z,22.77
2022-10-21T12:40:19.293Z,20.17
2022-10-21T12:43:11.989Z,22.42
2022-10-21T12:45:47.792Z,18.52
2022-10-21T12:48:37.718Z,22.35
2022-10-21T12:51:24.446Z,22.55
2022-10-21T12:54:24.312Z,22.73
2022-10-21T12:57:04.179Z,22.20
2022-10-21T12:59:44.162Z,23.48
2022-10-21T13:02:35.154Z,23.50
2022-10-21T13:05:04.737Z,21.55
2022-10-21T13:07:35.424Z,25.90
2022-10-21T13:10:03.755Z,21.83
2022-10-21T13:13:12.780Z,23.65
2022-10-21T13:15:48.745Z,20.98
2022-10-21T13:18:40.566Z,25.83
2022-10-21T13:21:27.732Z,25.88
2022-10-21T13:24:08.862Z,21.15
2022-10-21T13:26:41.017Z,21.67
2022-10-21T13:29:16.281Z,24.50
2022-10-21T13:32:07.270Z,21.48
2022-10-21T13:34:40.174Z,25.75
2022-10-21T13:37:17.949Z,24.50
2022-10-21T13:39:50.755Z,23.35
2022-10-21T13:42:26.861Z,23.92
2022-10-21T13:45:15.663Z,25.08
2022-10-21T13:47:47.795Z,31.48
2022-10-21T13:50:32.220Z,21.35
2022-10-21T13:56:44.400Z,30.20
2022-10-21T13:59:40.497Z,23.88
2022-10-21T14:02:30.580Z,22.05
2022-10-21T14:04:59.795Z,22.42
2022-10-21T14:07:28.619Z,21.70
2022-10-21T14:10:00.405Z,22.10
2022-10-21T14:12:35.985Z,32.30
2022-10-21T14:15:17.385Z,23.38
2022-10-21T14:17:56.296Z,23.02
2022-10-21T14:20:39.749Z,22.38
2022-10-21T14:26:22.894Z,22.50
2022-10-21T14:28:56.907Z,25.95
2022-10-21T14:31:45.706Z,24.10
2022-10-21T14:34:41.417Z,22.95
2022-10-21T14:37:12.332Z,25.88
2022-10-21T14:39:40.949Z,21.65
2022-10-21T14:42:23.245Z,21.63
2022-10-21T14:44:53.827Z,21.90
2022-10-21T14:47:55.937Z,20.60
2022-10-21T14:50:42.882Z,21.08
2022-10-21T14:53:34.169Z,20.38
2022-10-21T14:56:22.477Z,22.80
2022-10-21T14:58:56.405Z,22.50
2022-10-21T15:01:36.526Z,23.98
2022-10-21T15:04:06.834Z,25.15
2022-10-21T15:06:53.173Z,22.02
2022-10-21T15:09:21.960Z,22.98
2022-10-21T15:12:14.755Z,20.02
2022-10-21T15:14:44.689Z,20.35
2022-10-21T15:17:17.093Z,21.13
2022-10-21T15:19:49.025Z,20.50
2022-10-21T15:22:24.175Z,22.67
2022-10-21T15:24:52.909Z,21.08
2022-10-21T15:27:42.528Z,22.30
2022-10-21T15:30:26.365Z,23.30
2022-10-21T15:33:08.111Z,23.08
2022-10-21T15:35:39.657Z,24.33
2022-10-21T15:38:10.445Z,25.25
2022-10-21T15:40:39.001Z,18.58
2022-10-21T15:43:10.738Z,22.65
2022-10-21T15:45:42.858Z,24.08
2022-10-21T15:48:14.234Z,18.90
2022-10-21T15:53:17.191Z,19.55
2022-10-21T15:55:46.313Z,22.77
2022-10-21T15:58:15.143Z,22.45
2022-10-21T16:00:47.741Z,17.30
2022-10-21T16:03:17.542Z,22.30
2022-10-21T16:05:48.888Z,19.73
2022-10-21T16:08:23.921Z,21.38
2022-10-21T16:10:53.070Z,23.48
2022-10-21T16:13:32.091Z,21.20
2022-10-21T16:16:07.127Z,25.00
2022-10-21T16:18:35.536Z,25.45
2022-10-21T16:21:08.847Z,19.10
2022-10-21T16:23:44.335Z,16.08
2022-10-21T16:26:34.261Z,21.27
2022-10-21T16:29:03.915Z,19.27
2022-10-21T16:31:51.565Z,21.48
2022-10-21T16:34:23.632Z,22.30
2022-10-21T16:37:15.984Z,21.08
2022-10-21T16:39:47.274Z,17.08
2022-10-21T16:42:15.537Z,21.20
2022-10-21T16:44:51.116Z,18.65
2022-10-21T16:47:31.235Z,27.63
2022-10-21T16:50:08.835Z,22.48
2022-10-21T16:52:38.968Z,26.92
2022-10-21T16:55:18.202Z,23.10
2022-10-21T16:57:49.559Z,19.70
2022-10-21T17:00:20.492Z,24.35
2022-10-21T17:03:24.505Z,21.60
2022-10-21T17:05:54.047Z,22.52
2022-10-21T17:08:23.480Z,27.45
2022-10-21T17:11:00.689Z,22.92
2022-10-21T17:13:28.693Z,30.67
2022-10-21T17:16:03.807Z,26.52
2022-10-21T17:19:04.542Z,25.27
2022-10-21T17:22:17.463Z,26.30
2022-10-21T17:24:48.201Z,28.40
2022-10-21T17:27:19.860Z,20.00
2022-10-21T17:33:10.651Z,25.58
2022-10-21T18:33:30.223Z,25.50
2022-10-21T18:41:21.390Z,30.10
2022-10-21T18:43:50.683Z,31.23
2022-10-21T18:46:26.588Z,31.55
2022-10-21T18:48:54.895Z,31.40
2022-10-21T18:51:32.997Z,29.45
2022-10-21T18:54:09.091Z,32.67
2022-10-21T18:56:57.223Z,31.65
2022-10-21T18:59:25.138Z,31.13
2022-10-21T19:01:56.019Z,28.42
2022-10-21T19:04:24.095Z,26.20
2022-10-21T19:07:01.367Z,27.77
2022-10-21T19:09:37.327Z,27.38
2022-10-21T19:12:13.525Z,36.42
2022-10-21T19:14:44.047Z,61.50
2022-10-21T19:17:30.612Z,72.78
2022-10-21T19:20:18.208Z,71.68
2022-10-21T19:22:49.358Z,41.00
2022-10-21T19:25:25.987Z,25.40
2022-10-21T19:27:59.353Z,24.75
2022-10-21T19:30:33.712Z,27.02
2022-10-21T19:33:14.975Z,23.67
2022-10-21T19:35:45.001Z,22.38
2022-10-21T19:38:21.042Z,23.80
2022-10-21T19:41:16.340Z,28.60
2022-10-21T19:43:46.581Z,28.27
2022-10-21T19:46:38.211Z,30.40
2022-10-21T19:51:51.843Z,33.17
2022-10-21T19:55:12.143Z,29.05
2022-10-21T20:01:18.670Z,34.75
2022-10-21T20:03:49.482Z,29.40
2022-10-21T20:06:32.462Z,41.70
2022-10-21T20:09:04.398Z,45.13
2022-10-21T20:11:58.982Z,38.78
2022-10-21T20:14:28.053Z,37.42
2022-10-21T20:17:01.146Z,41.85
2022-10-21T20:19:35.999Z,36.95
2022-10-21T20:22:07.070Z,35.05
2022-10-21T20:24:52.451Z,31.65
2022-10-21T20:27:49.336Z,31.50
2022-10-21T20:30:17.104Z,32.28
2022-10-21T20:32:56.667Z,31.10
2022-10-21T20:35:30.572Z,25.98
2022-10-21T20:37:58.891Z,23.98
2022-10-21T20:40:39.936Z,28.52
2022-10-21T20:43:10.169Z,28.38
2022-10-21T20:45:41.308Z,28.00
2022-10-21T20:48:22.501Z,33.65
2022-10-21T20:51:04.447Z,34.83
2022-10-21T20:53:56.615Z,37.42
2022-10-21T20:56:33.330Z,35.80
2022-10-21T20:59:13.237Z,34.45
2022-10-21T21:01:51.279Z,39.88
2022-10-21T21:04:28.507Z,46.72
2022-10-21T21:07:26.321Z,50.42
2022-10-21T21:10:07.692Z,46.88
2022-10-21T21:12:43.089Z,45.58
2022-10-21T21:15:11.435Z,47.47
2022-10-21T21:17:40.300Z,46.90
2022-10-21T21:20:14.713Z,44.47
2022-10-21T21:22:49.067Z,47.90
2022-10-21T21:25:24.929Z,45.03
2022-10-21T21:28:18.634Z,40.78
2022-10-21T21:31:02.636Z,45.58
2022-10-21T21:33:30.651Z,41.72
2022-10-21T22:11:50.760Z,33.63
2022-10-21T22:14:25.784Z,32.78
